createdAt,value
2022-12-05T00:02:08.982Z,11.00
2022-12-05T00:04:35.537Z,10.90
2022-12-05T00:07:02.076Z,11.00
2022-12-05T00:09:28.569Z,11.00
2022-12-05T00:11:55.037Z,11.00
2022-12-05T00:14:21.494Z,11.00
2022-12-05T00:16:48.072Z,11.00
2022-12-05T00:19:14.614Z,11.00
2022-12-05T00:21:41.105Z,11.00
2022-12-05T00:24:07.566Z,11.00
2022-12-05T00:26:34.055Z,10.90
2022-12-05T00:29:00.535Z,11.00
2022-12-05T00:31:27.047Z,11.00
2022-12-05T00:33:53.554Z,11.00
2022-12-05T00:36:20.031Z,11.00
2022-12-05T00:38:46.503Z,10.90
2022-12-05T00:41:12.977Z,10.90
2022-12-05T00:43:43.909Z,10.90
2022-12-05T00:46:10.413Z,11.00
2022-12-05T00:48:36.931Z,11.00
2022-12-05T00:51:03.389Z,11.00
2022-12-05T00:53:29.855Z,10.90
2022-12-05T00:55:56.313Z,11.00
2022-12-05T00:58:22.790Z,10.90
2022-12-05T01:00:49.313Z,10.90
2022-12-05T01:03:15.885Z,10.90
2022-12-05T01:05:42.380Z,10.90
2022-12-05T01:08:08.876Z,10.90
2022-12-05T01:10:35.378Z,10.90
2022-12-05T01:13:01.829Z,10.90
2022-12-05T01:15:28.301Z,10.90
2022-12-05T01:17:54.771Z,10.90
2022-12-05T01:20:21.227Z,10.90
2022-12-05T01:22:47.710Z,10.90
2022-12-05T01:25:14.169Z,10.90
2022-12-05T01:27:40.643Z,11.00
2022-12-05T01:30:07.123Z,10.90
2022-12-05T01:32:33.582Z,10.90
2022-12-05T01:35:00.025Z,10.90
2022-12-05T01:37:26.499Z,10.90
2022-12-05T01:39:52.969Z,10.90
2022-12-05T01:42:23.242Z,10.90
2022-12-05T01:44:52.558Z,10.90
2022-12-05T01:47:19.010Z,10.90
2022-12-05T01:49:45.481Z,10.90
2022-12-05T01:52:11.950Z,10.90
2022-12-05T01:54:38.398Z,10.90
2022-12-05T01:57:04.848Z,10.80
2022-12-05T01:59:31.310Z,10.90
2022-12-05T02:01:57.793Z,10.90
2022-12-05T02:04:24.295Z,10.90
2022-12-05T02:06:50.754Z,10.90
2022-12-05T02:09:17.222Z,10.90
2022-12-05T02:11:43.689Z,10.90
2022-12-05T02:14:10.165Z,10.90
2022-12-05T02:16:36.661Z,10.90
2022-12-05T02:19:03.136Z,10.90
2022-12-05T02:21:29.598Z,10.90
2022-12-05T02:23:56.076Z,10.90
2022-12-05T02:26:22.550Z,10.90
2022-12-05T02:28:49.044Z,10.90
2022-12-05T02:31:15.507Z,10.90
2022-12-05T02:33:42.012Z,10.90
2022-12-05T02:36:08.462Z,10.80
2022-12-05T02:38:34.972Z,10.80
2022-12-05T02:41:01.438Z,10.80
2022-12-05T02:43:27.921Z,10.80
2022-12-05T02:45:54.426Z,10.80
2022-12-05T02:48:20.956Z,10.80
2022-12-05T02:50:47.411Z,10.80
2022-12-05T02:53:13.881Z,10.90
2022-12-05T02:55:40.356Z,10.90
2022-12-05T02:58:06.804Z,10.80
2022-12-05T03:00:33.279Z,10.80
2022-12-05T03:02:59.741Z,10.90
2022-12-05T03:05:26.208Z,10.80
2022-12-05T03:07:52.732Z,10.80
2022-12-05T03:10:19.219Z,10.90
2022-12-05T03:12:45.683Z,10.80
2022-12-05T03:15:12.150Z,10.80
2022-12-05T03:17:38.596Z,10.80
2022-12-05T03:20:05.081Z,10.80
2022-12-05T03:22:31.560Z,10.80
2022-12-05T03:24:58.030Z,10.80
2022-12-05T03:27:24.486Z,10.80
2022-12-05T03:29:50.947Z,10.80
2022-12-05T03:32:17.404Z,10.80
2022-12-05T03:34:43.886Z,10.80
2022-12-05T03:37:10.343Z,10.80
2022-12-05T03:39:36.827Z,10.80
2022-12-05T03:42:03.287Z,10.80
2022-12-05T03:44:29.759Z,10.80
2022-12-05T03:46:56.225Z,10.80
2022-12-05T03:49:22.714Z,10.80
2022-12-05T03:51:49.174Z,10.70
2022-12-05T03:54:15.637Z,10.80
2022-12-05T03:56:44.022Z,10.90
2022-12-05T03:59:10.515Z,10.80
2022-12-05T04:01:37.047Z,10.80
2022-12-05T04:04:03.617Z,10.80
2022-12-05T04:06:30.066Z,10.80
2022-12-05T04:08:56.537Z,10.90
2022-12-05T04:11:23.005Z,10.80
2022-12-05T04:13:49.444Z,10.80
2022-12-05T04:16:15.954Z,10.80
2022-12-05T04:18:42.459Z,10.80
2022-12-05T04:21:08.906Z,10.80
2022-12-05T04:23:35.352Z,10.90
2022-12-05T04:26:01.816Z,10.80
2022-12-05T04:28:28.292Z,10.80
2022-12-05T04:30:54.877Z,10.80
2022-12-05T04:33:21.360Z,10.80
2022-12-05T04:35:47.845Z,10.80
2022-12-05T04:38:14.302Z,10.80
2022-12-05T04:40:40.784Z,10.80
2022-12-05T04:43:07.242Z,10.80
2022-12-05T04:45:33.730Z,10.80
2022-12-05T04:48:00.191Z,10.90
2022-12-05T04:50:26.678Z,10.80
2022-12-05T04:52:53.138Z,10.80
2022-12-05T04:55:19.619Z,10.80
2022-12-05T04:57:46.084Z,10.80
2022-12-05T05:00:12.580Z,10.80
2022-12-05T05:02:39.103Z,10.70
2022-12-05T05:05:08.337Z,10.70
2022-12-05T05:07:38.969Z,10.70
2022-12-05T05:10:05.523Z,10.70
2022-12-05T05:12:31.986Z,10.80
2022-12-05T05:14:58.461Z,10.70
2022-12-05T05:17:24.925Z,10.70
2022-12-05T05:19:51.393Z,10.80
2022-12-05T05:22:17.863Z,10.80
2022-12-05T05:24:44.304Z,10.80
2022-12-05T05:27:10.751Z,10.80
2022-12-05T05:29:37.219Z,10.80
2022-12-05T05:32:03.698Z,10.80
2022-12-05T05:34:30.153Z,10.70
2022-12-05T05:36:56.615Z,10.70
2022-12-05T05:39:23.080Z,10.80
2022-12-05T05:41:49.554Z,10.80
2022-12-05T05:44:16.044Z,10.70
2022-12-05T05:46:42.562Z,10.80
2022-12-05T05:49:09.069Z,10.70
2022-12-05T05:51:35.532Z,10.80
2022-12-05T05:54:01.981Z,10.80
2022-12-05T05:56:28.446Z,10.80
2022-12-05T05:58:54.905Z,10.80
2022-12-05T06:01:21.394Z,10.80
2022-12-05T06:03:48.098Z,10.80
2022-12-05T06:06:14.690Z,10.80
2022-12-05T06:08:41.148Z,10.70
2022-12-05T06:11:07.620Z,10.70
2022-12-05T06:13:34.082Z,10.80
2022-12-05T06:16:00.603Z,10.70
2022-12-05T06:18:27.093Z,10.80
2022-12-05T06:20:53.562Z,10.70
2022-12-05T06:23:20.021Z,10.80
2022-12-05T06:25:46.477Z,10.70
2022-12-05T06:28:12.938Z,10.80
2022-12-05T06:30:39.404Z,10.80
2022-12-05T06:33:05.851Z,10.70
2022-12-05T06:35:32.311Z,10.70
2022-12-05T06:37:58.743Z,10.80
2022-12-05T06:40:25.213Z,10.80
2022-12-05T06:42:51.671Z,10.80
2022-12-05T06:45:18.146Z,10.80
2022-12-05T06:47:44.600Z,10.80
2022-12-05T06:50:11.072Z,10.80
2022-12-05T06:52:37.540Z,10.80
2022-12-05T06:55:03.989Z,10.70
2022-12-05T06:57:30.447Z,10.80
2022-12-05T06:59:57.295Z,10.80
2022-12-05T07:02:23.943Z,10.80
2022-12-05T07:04:50.404Z,10.70
2022-12-05T07:07:16.875Z,10.80
2022-12-05T07:09:43.335Z,10.70
2022-12-05T07:12:09.791Z,10.70
2022-12-05T07:14:51.514Z,10.70
2022-12-05T07:17:17.984Z,10.70
2022-12-05T07:19:44.446Z,10.60
2022-12-05T07:22:15.692Z,10.60
2022-12-05T07:24:42.499Z,10.70
2022-12-05T07:27:08.942Z,10.70
2022-12-05T07:29:35.417Z,10.70
2022-12-05T07:32:01.976Z,10.70
2022-12-05T07:34:28.481Z,10.70
2022-12-05T07:36:54.954Z,10.70
2022-12-05T07:39:21.407Z,10.70
2022-12-05T07:41:47.880Z,10.70
2022-12-05T07:44:14.346Z,10.70
2022-12-05T07:46:44.251Z,10.70
2022-12-05T07:49:14.386Z,10.70
2022-12-05T07:51:40.841Z,10.70
2022-12-05T07:54:07.318Z,10.60
2022-12-05T07:56:33.795Z,10.70
2022-12-05T07:59:00.273Z,10.70
2022-12-05T08:01:26.788Z,10.70
2022-12-05T08:03:53.378Z,10.70
2022-12-05T08:06:19.847Z,10.70
2022-12-05T08:08:46.304Z,10.70
2022-12-05T08:11:12.746Z,10.70
2022-12-05T08:13:39.215Z,10.70
2022-12-05T08:16:05.682Z,10.70
2022-12-05T08:18:32.149Z,10.70
2022-12-05T08:20:58.605Z,10.70
2022-12-05T08:23:25.078Z,10.70
2022-12-05T08:25:51.530Z,10.70
2022-12-05T08:28:17.984Z,10.70
2022-12-05T08:30:44.505Z,10.70
2022-12-05T08:33:10.990Z,10.70
2022-12-05T08:35:37.459Z,10.70
2022-12-05T08:38:03.917Z,10.70
2022-12-05T08:40:30.379Z,10.70
2022-12-05T08:42:56.851Z,10.70
2022-12-05T08:45:23.316Z,10.70
2022-12-05T08:47:49.788Z,10.70
2022-12-05T08:50:16.252Z,10.70
2022-12-05T08:52:42.723Z,10.70
2022-12-05T08:55:09.185Z,10.70
2022-12-05T08:57:35.659Z,10.70
2022-12-05T09:00:02.123Z,10.70
2022-12-05T09:02:28.611Z,10.60
2022-12-05T09:04:55.313Z,10.60
2022-12-05T09:07:22.046Z,10.70
2022-12-05T09:09:48.510Z,10.70
2022-12-05T09:12:14.976Z,10.70
2022-12-05T09:14:41.439Z,10.70
2022-12-05T09:17:07.903Z,10.70
2022-12-05T09:19:34.361Z,10.70
2022-12-05T09:22:00.830Z,10.70
2022-12-05T09:24:27.300Z,10.70
2022-12-05T09:26:53.764Z,10.60
2022-12-05T09:29:20.211Z,10.70
2022-12-05T09:31:46.704Z,10.70
2022-12-05T09:34:13.204Z,10.70
2022-12-05T09:36:39.667Z,10.70
2022-12-05T09:39:06.140Z,10.70
2022-12-05T09:41:32.620Z,10.70
2022-12-05T09:43:59.081Z,10.70
2022-12-05T09:46:25.645Z,10.70
2022-12-05T09:48:52.119Z,10.70
2022-12-05T09:51:18.600Z,10.60
2022-12-05T09:53:45.063Z,10.70
2022-12-05T09:56:11.528Z,10.70
2022-12-05T09:58:37.999Z,10.60
2022-12-05T10:01:04.475Z,10.70
2022-12-05T10:03:30.944Z,10.70
2022-12-05T10:05:57.413Z,10.60
2022-12-05T10:08:23.951Z,10.70
2022-12-05T10:10:50.438Z,10.60
2022-12-05T10:13:16.916Z,10.70
2022-12-05T10:15:45.675Z,10.70
2022-12-05T10:18:12.509Z,10.60
2022-12-05T10:20:38.964Z,10.60
2022-12-05T10:23:05.467Z,10.60
2022-12-05T10:25:31.933Z,10.60
2022-12-05T10:27:58.407Z,10.70
2022-12-05T10:30:24.871Z,10.70
2022-12-05T10:32:51.341Z,10.70
2022-12-05T10:35:17.820Z,10.70
2022-12-05T10:37:45.412Z,10.70
2022-12-05T10:40:11.875Z,10.70
2022-12-05T10:42:38.341Z,10.70
2022-12-05T10:45:04.790Z,10.70
2022-12-05T10:47:31.254Z,10.70
2022-12-05T10:49:57.723Z,10.60
2022-12-05T10:52:24.193Z,10.60
2022-12-05T10:54:50.645Z,10.60
2022-12-05T10:57:17.100Z,10.60
2022-12-05T10:59:43.589Z,10.60
2022-12-05T11:02:11.701Z,10.70
2022-12-05T11:04:38.213Z,10.60
2022-12-05T11:07:04.850Z,10.60
2022-12-05T11:09:31.298Z,10.70
2022-12-05T11:11:57.763Z,10.60
2022-12-05T11:14:24.243Z,10.60
2022-12-05T11:16:50.754Z,10.70
2022-12-05T11:19:17.239Z,10.70
2022-12-05T11:21:43.697Z,10.70
2022-12-05T11:24:10.179Z,10.50
2022-12-05T11:26:36.637Z,10.60
2022-12-05T11:29:03.112Z,10.60
2022-12-05T11:31:29.637Z,10.60
2022-12-05T11:34:01.850Z,10.60
2022-12-05T11:36:28.548Z,10.60
2022-12-05T11:38:55.039Z,10.60
2022-12-05T11:41:21.487Z,10.60
2022-12-05T11:43:47.946Z,10.60
2022-12-05T11:46:14.447Z,10.60
2022-12-05T11:48:40.938Z,10.70
2022-12-05T11:51:07.403Z,10.60
2022-12-05T11:53:33.859Z,10.60
2022-12-05T11:56:00.314Z,10.70
2022-12-05T11:58:26.773Z,10.60
2022-12-05T12:00:53.257Z,10.60
2022-12-05T12:03:19.769Z,10.60
2022-12-05T12:05:46.291Z,10.50
2022-12-05T12:08:12.862Z,10.60
2022-12-05T12:10:39.375Z,10.60
2022-12-05T12:13:05.848Z,10.60
2022-12-05T12:15:32.314Z,10.60
2022-12-05T12:17:58.784Z,10.50
2022-12-05T12:20:25.245Z,10.60
2022-12-05T12:22:56.698Z,10.60
2022-12-05T12:25:23.167Z,10.60
2022-12-05T12:27:49.620Z,10.50
2022-12-05T12:30:16.076Z,10.50
2022-12-05T12:32:42.530Z,10.60
2022-12-05T12:35:08.984Z,10.60
2022-12-05T12:37:35.443Z,10.60
2022-12-05T12:40:01.905Z,10.50
2022-12-05T12:42:28.358Z,10.50
2022-12-05T12:44:56.661Z,10.50
2022-12-05T12:47:23.371Z,10.60
2022-12-05T12:49:49.839Z,10.50
2022-12-05T12:52:16.311Z,10.60
2022-12-05T12:57:29.212Z,10.50
2022-12-05T12:59:55.920Z,10.50
2022-12-05T13:02:22.688Z,10.50
2022-12-05T13:04:49.173Z,10.50
2022-12-05T13:07:15.672Z,10.50
2022-12-05T13:09:42.939Z,10.50
2022-12-05T13:12:14.510Z,10.50
2022-12-05T13:14:40.987Z,10.50
2022-12-05T13:17:07.503Z,10.50
2022-12-05T13:19:33.995Z,10.50
2022-12-05T13:22:00.446Z,10.50
2022-12-05T13:24:26.910Z,10.50
2022-12-05T13:26:53.400Z,10.50
2022-12-05T13:29:19.869Z,10.50
2022-12-05T13:31:46.401Z,10.50
2022-12-05T13:34:12.887Z,10.50
2022-12-05T13:36:39.341Z,10.50
2022-12-05T13:39:05.783Z,10.50
2022-12-05T13:41:32.252Z,10.50
2022-12-05T13:44:06.243Z,10.50
2022-12-05T13:46:33.492Z,10.50
2022-12-05T13:49:00.810Z,10.60
2022-12-05T13:51:32.535Z,10.50
2022-12-05T13:53:58.984Z,10.50
2022-12-05T13:56:25.459Z,10.50
2022-12-05T13:58:51.916Z,10.60
2022-12-05T14:01:18.440Z,10.50
2022-12-05T14:03:44.948Z,10.50
2022-12-05T14:06:11.409Z,10.50
2022-12-05T14:08:37.860Z,10.50
2022-12-05T14:11:04.328Z,10.50
2022-12-05T14:13:30.838Z,10.50
2022-12-05T14:15:57.343Z,10.50
2022-12-05T14:18:23.805Z,10.50
2022-12-05T14:20:50.298Z,10.50
2022-12-05T14:23:16.772Z,10.50
2022-12-05T14:25:54.668Z,10.50
2022-12-05T14:28:24.349Z,10.50
2022-12-05T14:30:50.883Z,10.50
2022-12-05T14:33:17.373Z,10.40
2022-12-05T14:35:43.859Z,10.40
2022-12-05T14:38:10.311Z,10.40
2022-12-05T14:40:36.799Z,10.40
2022-12-05T14:43:03.258Z,10.40
2022-12-05T14:45:29.724Z,10.40
2022-12-05T14:47:56.191Z,10.40
2022-12-05T14:50:22.661Z,10.40
2022-12-05T14:52:49.137Z,10.40
2022-12-05T14:55:15.589Z,10.40
2022-12-05T14:57:42.054Z,10.40
2022-12-05T15:00:08.500Z,10.50
2022-12-05T15:02:34.967Z,10.40
2022-12-05T15:05:01.423Z,10.50
2022-12-05T15:07:28.717Z,10.40
2022-12-05T15:09:55.184Z,10.40
2022-12-05T15:12:21.667Z,10.40
2022-12-05T15:14:48.149Z,10.40
2022-12-05T15:17:14.694Z,10.40
2022-12-05T15:19:41.160Z,10.40
2022-12-05T15:22:07.620Z,10.40
2022-12-05T15:24:34.084Z,10.40
2022-12-05T15:27:00.551Z,10.40
2022-12-05T15:29:27.064Z,10.40
2022-12-05T15:31:53.575Z,10.40
2022-12-05T15:34:20.051Z,10.40
2022-12-05T15:36:46.542Z,10.40
2022-12-05T15:39:12.998Z,10.40
2022-12-05T15:41:39.480Z,10.50
2022-12-05T15:44:05.947Z,10.50
2022-12-05T15:46:32.469Z,10.40
2022-12-05T15:48:58.966Z,10.40
2022-12-05T15:51:25.440Z,10.40
2022-12-05T15:53:51.907Z,10.40
2022-12-05T15:56:18.369Z,10.40
2022-12-05T15:58:44.832Z,10.40
2022-12-05T16:01:11.354Z,10.50
2022-12-05T16:03:37.848Z,10.50
2022-12-05T16:06:04.313Z,10.40
2022-12-05T16:08:30.756Z,10.40
2022-12-05T16:10:57.220Z,10.40
2022-12-05T16:13:23.692Z,10.40
2022-12-05T16:15:52.766Z,10.40
2022-12-05T16:18:19.623Z,10.40
2022-12-05T16:20:46.084Z,10.40
2022-12-05T16:23:12.542Z,10.40
2022-12-05T16:25:38.995Z,10.40
2022-12-05T16:28:05.470Z,10.40
2022-12-05T16:30:31.944Z,10.40
2022-12-05T16:32:58.413Z,10.40
2022-12-05T16:35:24.899Z,10.40
2022-12-05T16:37:51.369Z,10.40
2022-12-05T16:40:17.833Z,10.40
2022-12-05T16:42:44.319Z,10.40
2022-12-05T16:45:10.792Z,10.40
2022-12-05T16:47:37.255Z,10.40
2022-12-05T16:50:03.707Z,10.40
2022-12-05T16:52:30.170Z,10.40
2022-12-05T16:54:56.830Z,10.40
2022-12-05T16:57:23.570Z,10.40
2022-12-05T16:59:50.027Z,10.40
2022-12-05T17:02:16.633Z,10.40
2022-12-05T17:04:43.267Z,10.40
2022-12-05T17:07:09.770Z,10.40
2022-12-05T17:09:36.237Z,10.40
2022-12-05T17:12:02.717Z,10.40
2022-12-05T17:14:29.178Z,10.40
2022-12-05T17:16:55.652Z,10.40
2022-12-05T17:19:22.092Z,10.40
2022-12-05T17:21:48.571Z,10.40
2022-12-05T17:24:15.028Z,10.40
2022-12-05T17:26:41.527Z,10.40
2022-12-05T17:29:07.975Z,10.30
2022-12-05T17:31:34.472Z,10.30
2022-12-05T17:34:01.007Z,10.30
2022-12-05T17:36:27.470Z,10.30
2022-12-05T17:38:53.944Z,10.40
2022-12-05T17:41:20.410Z,10.30
2022-12-05T17:43:46.893Z,10.30
2022-12-05T17:46:13.381Z,10.30
2022-12-05T17:48:39.877Z,10.30
2022-12-05T17:51:06.328Z,10.30
2022-12-05T17:53:32.787Z,10.30
2022-12-05T17:55:59.251Z,10.30
2022-12-05T17:58:25.728Z,10.30
2022-12-05T18:00:52.277Z,10.30
2022-12-05T18:03:18.894Z,10.40
2022-12-05T18:05:45.448Z,10.40
2022-12-05T18:08:12.001Z,10.40
2022-12-05T18:10:38.473Z,10.40
2022-12-05T18:13:04.941Z,10.30
2022-12-05T18:15:33.913Z,10.30
2022-12-05T18:18:03.156Z,10.30
2022-12-05T18:20:29.602Z,10.30
2022-12-05T18:22:56.109Z,10.30
2022-12-05T18:25:22.557Z,10.40
2022-12-05T18:27:49.037Z,10.30
2022-12-05T18:30:15.518Z,10.30
2022-12-05T18:32:42.025Z,10.30
2022-12-05T18:35:12.727Z,10.30
2022-12-05T18:37:39.620Z,10.30
2022-12-05T18:40:06.083Z,10.30
2022-12-05T18:42:32.557Z,10.30
2022-12-05T18:44:59.253Z,10.30
2022-12-05T18:47:25.839Z,10.30
2022-12-05T18:49:52.302Z,10.30
2022-12-05T18:52:18.766Z,10.20
2022-12-05T18:54:53.839Z,10.20
2022-12-05T18:57:24.279Z,10.20
2022-12-05T18:59:50.751Z,10.30
2022-12-05T19:02:17.267Z,10.30
2022-12-05T19:04:43.779Z,10.30
2022-12-05T19:07:10.232Z,10.30
2022-12-05T19:09:36.741Z,10.30
2022-12-05T19:12:03.214Z,10.30
2022-12-05T19:14:29.710Z,10.30
2022-12-05T19:16:59.906Z,10.30
2022-12-05T19:19:26.958Z,10.30
2022-12-05T19:21:53.436Z,10.30
2022-12-05T19:24:19.878Z,10.30
2022-12-05T19:26:46.343Z,10.30
2022-12-05T19:29:12.805Z,10.20
2022-12-05T19:31:39.331Z,10.30
2022-12-05T19:34:05.842Z,10.20
2022-12-05T19:36:32.303Z,10.20
2022-12-05T19:39:02.843Z,10.20
2022-12-05T19:41:29.309Z,10.20
2022-12-05T19:43:55.770Z,10.20
2022-12-05T19:46:22.290Z,10.20
2022-12-05T19:48:48.786Z,10.20
2022-12-05T19:51:15.251Z,10.20
2022-12-05T19:53:41.728Z,10.20
2022-12-05T19:56:08.235Z,10.20
2022-12-05T19:58:34.711Z,10.20
2022-12-05T20:01:01.227Z,10.20
2022-12-05T20:03:27.802Z,10.20
2022-12-05T20:05:54.277Z,10.20
2022-12-05T20:08:20.741Z,10.30
2022-12-05T20:10:47.208Z,10.30
2022-12-05T20:13:44.678Z,10.20
2022-12-05T20:16:00.104Z,10.20
2022-12-05T20:18:26.554Z,10.20
2022-12-05T20:20:53.032Z,10.20
2022-12-05T20:23:19.491Z,10.20
2022-12-05T20:25:45.965Z,10.20
2022-12-05T20:28:12.442Z,10.20
2022-12-05T20:30:39.088Z,10.20
2022-12-05T20:33:05.576Z,10.20
2022-12-05T20:35:32.056Z,10.20
2022-12-05T20:37:58.518Z,10.20
2022-12-05T20:40:24.979Z,10.20
2022-12-05T20:42:51.418Z,10.10
2022-12-05T20:45:17.864Z,10.10
2022-12-05T20:47:44.328Z,10.10
2022-12-05T20:50:10.800Z,10.10
2022-12-05T20:52:40.022Z,10.10
2022-12-05T20:55:10.141Z,10.10
2022-12-05T20:57:36.602Z,10.10
2022-12-05T21:00:03.081Z,10.20
2022-12-05T21:02:29.544Z,10.10
2022-12-05T21:04:56.049Z,10.20
2022-12-05T21:07:22.514Z,10.10
2022-12-05T21:09:48.998Z,10.10
2022-12-05T21:12:15.494Z,10.20
2022-12-05T21:14:41.968Z,10.10
2022-12-05T21:17:08.416Z,10.20
2022-12-05T21:19:34.900Z,10.20
2022-12-05T21:22:01.355Z,10.20
2022-12-05T21:24:27.803Z,10.10
2022-12-05T21:26:54.274Z,10.10
2022-12-05T21:29:20.718Z,10.10
2022-12-05T21:31:47.221Z,10.10
2022-12-05T21:34:13.690Z,10.10
2022-12-05T21:36:40.155Z,10.10
2022-12-05T21:39:06.609Z,10.10
2022-12-05T21:41:33.094Z,10.10
2022-12-05T21:43:59.533Z,10.10
2022-12-05T21:46:26.030Z,10.10
2022-12-05T21:48:52.564Z,10.10
2022-12-05T21:51:19.038Z,10.10
2022-12-05T21:53:45.510Z,10.10
2022-12-05T21:56:11.980Z,10.10
2022-12-05T21:58:42.071Z,10.10
2022-12-05T22:01:08.955Z,10.10
2022-12-05T22:03:35.458Z,10.10
2022-12-05T22:06:02.944Z,10.10
2022-12-05T22:08:29.403Z,10.10
2022-12-05T22:10:55.851Z,10.10
2022-12-05T22:13:22.290Z,10.10
2022-12-05T22:15:48.839Z,10.10
2022-12-05T22:18:15.346Z,10.10
2022-12-05T22:20:41.807Z,10.20
2022-12-05T22:23:12.430Z,10.10
2022-12-05T22:25:41.833Z,10.10
2022-12-05T22:28:08.295Z,10.10
2022-12-05T22:30:34.802Z,10.10
2022-12-05T22:33:01.285Z,10.10
2022-12-05T22:35:27.766Z,10.10
2022-12-05T22:37:54.232Z,10.10
2022-12-05T22:40:20.690Z,10.10
2022-12-05T22:42:47.169Z,10.10
2022-12-05T22:45:13.631Z,10.10
2022-12-05T22:47:40.089Z,10.10
2022-12-05T22:50:06.548Z,10.10
2022-12-05T22:52:33.006Z,10.10
2022-12-05T22:54:59.588Z,10.10
2022-12-05T22:57:26.115Z,10.10
2022-12-05T22:59:52.575Z,10.10
2022-12-05T23:02:19.056Z,10.10
2022-12-05T23:04:45.519Z,10.10
2022-12-05T23:07:11.992Z,10.10
2022-12-05T23:09:38.442Z,10.10
2022-12-05T23:12:04.939Z,10.10
2022-12-05T23:14:31.398Z,10.00
2022-12-05T23:16:57.888Z,10.00
2022-12-05T23:19:24.355Z,10.00
2022-12-05T23:21:51.006Z,10.00
2022-12-05T23:24:17.484Z,10.00
2022-12-05T23:26:43.988Z,10.00
2022-12-05T23:29:10.458Z,10.10
2022-12-05T23:31:37.030Z,10.00
2022-12-05T23:34:04.142Z,10.00
2022-12-05T23:36:30.832Z,10.00
2022-12-05T23:38:57.278Z,10.00
2022-12-05T23:41:23.738Z,10.00
2022-12-05T23:43:50.199Z,10.00
2022-12-05T23:46:16.733Z,10.00
2022-12-05T23:48:43.276Z,10.00
2022-12-05T23:51:09.744Z,10.00
2022-12-05T23:53:36.184Z,10.10
2022-12-05T23:56:02.632Z,10.10
2022-12-05T23:58:29.110Z,10.10
